Airfield :
LOGIN :

Register | Disclaimer

   EN    FR    IT 

 










Legend :    VFR   Marginal VFR   IFR   Intensive IFR   Very Intensive IFR
Visi :
Ceiling :
>= 8 km
>= 3000ft
5 to 8 km
1000 to 3000 ft
1500m to 5 km
500 to 1000 ft
800 to 1500m
200 to 500 ft
< 800m
< 200 ft
Symbols :   Thunderstorms  Fog  Heavy snow  Heavy precipitations  Wind > 20 kt
SIGMETs :     Misc.  Thunderstorms  Icing  Turbulence  Mountain Waves  Volcanic Ashes






- Airport Elevation : 90 ft
- IATA code : NTE


LFRS - Nantes

CURRENT METAR :
  • 070730Z AUTO 35006KT 310V040 CAVOK 19/14 Q1028 NOSIG

EXPIRED METARs :
  • 070700Z AUTO 36005KT 310V040 CAVOK 18/14 Q1028 NOSIG
  • 070630Z AUTO 33004KT 300V020 CAVOK 17/14 Q1028 NOSIG
  • 070600Z AUTO 31004KT 280V350 CAVOK 15/13 Q1028 NOSIG
  • 070530Z AUTO 33004KT 310V010 CAVOK 15/13 Q1028 NOSIG
  • 070500Z AUTO 34004KT CAVOK 14/12 Q1028 NOSIG
  • 070430Z AUTO 35003KT CAVOK 14/12 Q1027 NOSIG

TAF TAF LFRS
Valid from the 07 at 06:00 until the 08 at 12:00 UTC


070500Z 0706/0812 34003KT CAVOK
BECMG 0716/0718 36012KT
BECMG 0803/0806 06010KT
ATIS : +33 2 40 05 12 74



MET'MAP, your aeronautical weather chart ! - Copyright ORBIFLY December 2007 - Disclaimer

ORBIFLY MET'MAP TEAM :

Programming & Development : Alexandra Zaïnal
Original concept : Baudouin d'Aumeries
Technical & hardware support : Manuel Goepfert
Assistance : Marc-Olivier Méhu




SOURCES & CREDITS :

   NOAA